sensor_id;sensor_type;location;lat;lon;timestamp;P1;durP1;ratioP1;P2;durP2;ratioP2
48161;SDS011;33950;48.154;16.316;2022-07-06T00:01:23;3.72;;;3.40;;
48161;SDS011;33950;48.154;16.316;2022-07-06T00:03:49;8.52;;;3.95;;
48161;SDS011;33950;48.154;16.316;2022-07-06T00:06:15;4.43;;;3.90;;
48161;SDS011;33950;48.154;16.316;2022-07-06T00:08:42;7.88;;;3.85;;
48161;SDS011;33950;48.154;16.316;2022-07-06T00:11:08;5.55;;;3.50;;
48161;SDS011;33950;48.154;16.316;2022-07-06T00:13:35;4.00;;;3.70;;
48161;SDS011;33950;48.154;16.316;2022-07-06T00:16:01;12.45;;;3.33;;
48161;SDS011;33950;48.154;16.316;2022-07-06T00:18:27;6.03;;;3.58;;
48161;SDS011;33950;48.154;16.316;2022-07-06T00:20:53;4.70;;;4.15;;
48161;SDS011;33950;48.154;16.316;2022-07-06T00:23:19;5.07;;;3.70;;
48161;SDS011;33950;48.154;16.316;2022-07-06T00:25:45;7.32;;;3.25;;
48161;SDS011;33950;48.154;16.316;2022-07-06T00:28:10;4.65;;;3.88;;
48161;SDS011;33950;48.154;16.316;2022-07-06T00:30:38;5.80;;;4.53;;
48161;SDS011;33950;48.154;16.316;2022-07-06T00:33:03;5.10;;;4.57;;
48161;SDS011;33950;48.154;16.316;2022-07-06T00:35:29;8.15;;;4.63;;
48161;SDS011;33950;48.154;16.316;2022-07-06T00:37:55;8.02;;;4.63;;
48161;SDS011;33950;48.154;16.316;2022-07-06T00:40:21;6.88;;;5.32;;
48161;SDS011;33950;48.154;16.316;2022-07-06T00:42:47;5.28;;;4.10;;
48161;SDS011;33950;48.154;16.316;2022-07-06T00:45:14;6.45;;;4.68;;
48161;SDS011;33950;48.154;16.316;2022-07-06T00:47:43;8.70;;;4.72;;
48161;SDS011;33950;48.154;16.316;2022-07-06T00:50:10;6.28;;;5.22;;
48161;SDS011;33950;48.154;16.316;2022-07-06T00:52:43;8.32;;;5.60;;
48161;SDS011;33950;48.154;16.316;2022-07-06T00:55:12;7.38;;;5.30;;
48161;SDS011;33950;48.154;16.316;2022-07-06T00:57:39;8.93;;;5.43;;
48161;SDS011;33950;48.154;16.316;2022-07-06T01:00:06;6.47;;;5.70;;
48161;SDS011;33950;48.154;16.316;2022-07-06T01:02:34;7.65;;;5.28;;
48161;SDS011;33950;48.154;16.316;2022-07-06T01:05:02;5.80;;;5.25;;
48161;SDS011;33950;48.154;16.316;2022-07-06T01:07:29;9.85;;;5.32;;
48161;SDS011;33950;48.154;16.316;2022-07-06T01:09:55;10.02;;;5.80;;
48161;SDS011;33950;48.154;16.316;2022-07-06T01:12:21;7.93;;;5.90;;
48161;SDS011;33950;48.154;16.316;2022-07-06T01:14:48;7.47;;;5.82;;
48161;SDS011;33950;48.154;16.316;2022-07-06T01:17:14;8.55;;;5.30;;
48161;SDS011;33950;48.154;16.316;2022-07-06T01:19:41;8.57;;;5.70;;
48161;SDS011;33950;48.154;16.316;2022-07-06T01:22:08;8.18;;;6.05;;
48161;SDS011;33950;48.154;16.316;2022-07-06T01:24:34;7.05;;;5.40;;
48161;SDS011;33950;48.154;16.316;2022-07-06T01:27:00;5.95;;;5.43;;
48161;SDS011;33950;48.154;16.316;2022-07-06T01:29:27;7.18;;;5.78;;
48161;SDS011;33950;48.154;16.316;2022-07-06T01:31:52;9.38;;;5.75;;
48161;SDS011;33950;48.154;16.316;2022-07-06T01:34:19;6.60;;;5.57;;
48161;SDS011;33950;48.154;16.316;2022-07-06T01:36:45;7.03;;;5.90;;
48161;SDS011;33950;48.154;16.316;2022-07-06T01:39:12;10.30;;;5.65;;
48161;SDS011;33950;48.154;16.316;2022-07-06T01:41:38;10.25;;;5.68;;
48161;SDS011;33950;48.154;16.316;2022-07-06T01:44:04;9.55;;;5.55;;
48161;SDS011;33950;48.154;16.316;2022-07-06T01:46:30;9.95;;;5.90;;
48161;SDS011;33950;48.154;16.316;2022-07-06T01:48:56;6.68;;;5.95;;
48161;SDS011;33950;48.154;16.316;2022-07-06T01:51:22;8.80;;;6.43;;
48161;SDS011;33950;48.154;16.316;2022-07-06T01:53:48;7.50;;;4.90;;
48161;SDS011;33950;48.154;16.316;2022-07-06T01:56:15;5.68;;;4.78;;
48161;SDS011;33950;48.154;16.316;2022-07-06T01:58:44;13.60;;;5.22;;
48161;SDS011;33950;48.154;16.316;2022-07-06T02:01:10;6.18;;;5.35;;
48161;SDS011;33950;48.154;16.316;2022-07-06T02:03:37;9.52;;;5.28;;
48161;SDS011;33950;48.154;16.316;2022-07-06T02:06:03;5.82;;;5.20;;
48161;SDS011;33950;48.154;16.316;2022-07-06T02:08:30;6.55;;;4.57;;
48161;SDS011;33950;48.154;16.316;2022-07-06T02:10:56;5.68;;;5.07;;
48161;SDS011;33950;48.154;16.316;2022-07-06T02:13:24;9.50;;;5.50;;
48161;SDS011;33950;48.154;16.316;2022-07-06T02:15:50;5.90;;;5.32;;
48161;SDS011;33950;48.154;16.316;2022-07-06T02:18:15;5.82;;;5.03;;
48161;SDS011;33950;48.154;16.316;2022-07-06T02:20:41;6.47;;;5.30;;
48161;SDS011;33950;48.154;16.316;2022-07-06T02:23:07;8.68;;;5.32;;
48161;SDS011;33950;48.154;16.316;2022-07-06T02:25:33;10.45;;;5.22;;
48161;SDS011;33950;48.154;16.316;2022-07-06T02:27:59;6.57;;;4.95;;
48161;SDS011;33950;48.154;16.316;2022-07-06T02:30:26;8.25;;;4.82;;
48161;SDS011;33950;48.154;16.316;2022-07-06T02:32:52;11.57;;;5.00;;
48161;SDS011;33950;48.154;16.316;2022-07-06T02:35:17;15.57;;;5.13;;
48161;SDS011;33950;48.154;16.316;2022-07-06T02:37:43;4.82;;;4.43;;
48161;SDS011;33950;48.154;16.316;2022-07-06T02:40:09;7.30;;;4.70;;
48161;SDS011;33950;48.154;16.316;2022-07-06T02:42:36;4.85;;;4.35;;
48161;SDS011;33950;48.154;16.316;2022-07-06T02:45:02;4.32;;;3.67;;
48161;SDS011;33950;48.154;16.316;2022-07-06T02:47:30;6.13;;;3.90;;
48161;SDS011;33950;48.154;16.316;2022-07-06T02:49:56;5.88;;;4.03;;
48161;SDS011;33950;48.154;16.316;2022-07-06T02:52:21;11.48;;;3.90;;
48161;SDS011;33950;48.154;16.316;2022-07-06T02:54:47;5.82;;;4.15;;
48161;SDS011;33950;48.154;16.316;2022-07-06T02:57:13;5.97;;;4.43;;
48161;SDS011;33950;48.154;16.316;2022-07-06T02:59:39;6.28;;;4.72;;
48161;SDS011;33950;48.154;16.316;2022-07-06T03:02:05;6.15;;;4.70;;
48161;SDS011;33950;48.154;16.316;2022-07-06T03:04:33;5.40;;;4.50;;
48161;SDS011;33950;48.154;16.316;2022-07-06T03:06:59;12.52;;;4.40;;
48161;SDS011;33950;48.154;16.316;2022-07-06T03:09:25;5.05;;;4.55;;
48161;SDS011;33950;48.154;16.316;2022-07-06T03:11:51;4.85;;;4.20;;
48161;SDS011;33950;48.154;16.316;2022-07-06T03:14:17;6.68;;;4.70;;
48161;SDS011;33950;48.154;16.316;2022-07-06T03:16:44;6.03;;;4.55;;
48161;SDS011;33950;48.154;16.316;2022-07-06T03:19:10;7.03;;;4.80;;
48161;SDS011;33950;48.154;16.316;2022-07-06T03:21:37;6.70;;;4.47;;
48161;SDS011;33950;48.154;16.316;2022-07-06T03:24:03;5.50;;;4.50;;
48161;SDS011;33950;48.154;16.316;2022-07-06T03:26:29;5.38;;;4.88;;
48161;SDS011;33950;48.154;16.316;2022-07-06T03:28:55;6.72;;;4.22;;
48161;SDS011;33950;48.154;16.316;2022-07-06T03:31:21;6.68;;;3.60;;
48161;SDS011;33950;48.154;16.316;2022-07-06T03:33:47;12.10;;;4.13;;
48161;SDS011;33950;48.154;16.316;2022-07-06T03:36:13;9.65;;;3.88;;
48161;SDS011;33950;48.154;16.316;2022-07-06T03:38:40;4.53;;;4.10;;
48161;SDS011;33950;48.154;16.316;2022-07-06T03:41:06;8.77;;;4.82;;
48161;SDS011;33950;48.154;16.316;2022-07-06T03:43:32;8.20;;;5.40;;
48161;SDS011;33950;48.154;16.316;2022-07-06T03:45:58;6.15;;;4.20;;
48161;SDS011;33950;48.154;16.316;2022-07-06T03:48:24;4.80;;;3.53;;
48161;SDS011;33950;48.154;16.316;2022-07-06T03:50:50;10.63;;;4.47;;
48161;SDS011;33950;48.154;16.316;2022-07-06T03:53:16;4.80;;;4.30;;
48161;SDS011;33950;48.154;16.316;2022-07-06T03:55:43;4.43;;;3.92;;
48161;SDS011;33950;48.154;16.316;2022-07-06T03:58:29;5.05;;;3.95;;
48161;SDS011;33950;48.154;16.316;2022-07-06T04:00:54;4.75;;;4.32;;
48161;SDS011;33950;48.154;16.316;2022-07-06T04:03:20;8.00;;;4.50;;
48161;SDS011;33950;48.154;16.316;2022-07-06T04:05:46;4.43;;;4.03;;
48161;SDS011;33950;48.154;16.316;2022-07-06T04:08:12;5.18;;;4.72;;
48161;SDS011;33950;48.154;16.316;2022-07-06T04:10:37;8.70;;;4.20;;
48161;SDS011;33950;48.154;16.316;2022-07-06T04:13:04;7.63;;;4.90;;
48161;SDS011;33950;48.154;16.316;2022-07-06T04:15:30;6.68;;;4.18;;
48161;SDS011;33950;48.154;16.316;2022-07-06T04:17:56;5.72;;;3.85;;
48161;SDS011;33950;48.154;16.316;2022-07-06T04:20:22;5.93;;;4.10;;
48161;SDS011;33950;48.154;16.316;2022-07-06T04:22:50;4.20;;;3.80;;
48161;SDS011;33950;48.154;16.316;2022-07-06T04:25:16;5.25;;;3.80;;
48161;SDS011;33950;48.154;16.316;2022-07-06T04:27:42;7.60;;;4.47;;
48161;SDS011;33950;48.154;16.316;2022-07-06T04:30:10;6.78;;;3.78;;
48161;SDS011;33950;48.154;16.316;2022-07-06T04:32:36;5.75;;;3.95;;
48161;SDS011;33950;48.154;16.316;2022-07-06T04:35:03;10.10;;;3.95;;
48161;SDS011;33950;48.154;16.316;2022-07-06T04:37:29;4.20;;;3.85;;
48161;SDS011;33950;48.154;16.316;2022-07-06T04:39:55;4.15;;;3.40;;
48161;SDS011;33950;48.154;16.316;2022-07-06T04:42:21;4.15;;;3.85;;
48161;SDS011;33950;48.154;16.316;2022-07-06T04:44:47;4.75;;;4.25;;
48161;SDS011;33950;48.154;16.316;2022-07-06T04:47:14;5.82;;;3.28;;
48161;SDS011;33950;48.154;16.316;2022-07-06T04:49:40;3.85;;;3.45;;
48161;SDS011;33950;48.154;16.316;2022-07-06T04:52:06;8.43;;;4.20;;
48161;SDS011;33950;48.154;16.316;2022-07-06T04:54:33;5.10;;;3.60;;
48161;SDS011;33950;48.154;16.316;2022-07-06T04:56:59;3.92;;;3.25;;
48161;SDS011;33950;48.154;16.316;2022-07-06T04:59:24;3.72;;;3.10;;
48161;SDS011;33950;48.154;16.316;2022-07-06T05:01:50;7.63;;;3.45;;
48161;SDS011;33950;48.154;16.316;2022-07-06T05:04:17;4.97;;;3.55;;
48161;SDS011;33950;48.154;16.316;2022-07-06T05:06:44;3.92;;;3.53;;
48161;SDS011;33950;48.154;16.316;2022-07-06T05:09:11;6.75;;;3.20;;
48161;SDS011;33950;48.154;16.316;2022-07-06T05:11:37;5.13;;;2.88;;
48161;SDS011;33950;48.154;16.316;2022-07-06T05:14:02;5.57;;;3.25;;
48161;SDS011;33950;48.154;16.316;2022-07-06T05:16:28;4.47;;;2.90;;
48161;SDS011;33950;48.154;16.316;2022-07-06T05:18:54;4.03;;;3.05;;
48161;SDS011;33950;48.154;16.316;2022-07-06T05:21:21;4.22;;;2.90;;
48161;SDS011;33950;48.154;16.316;2022-07-06T05:23:47;7.97;;;2.70;;
48161;SDS011;33950;48.154;16.316;2022-07-06T05:26:13;5.57;;;2.80;;
48161;SDS011;33950;48.154;16.316;2022-07-06T05:28:39;2.60;;;2.40;;
48161;SDS011;33950;48.154;16.316;2022-07-06T05:31:05;3.28;;;2.67;;
48161;SDS011;33950;48.154;16.316;2022-07-06T05:33:31;5.40;;;3.08;;
48161;SDS011;33950;48.154;16.316;2022-07-06T05:35:57;3.30;;;2.60;;
48161;SDS011;33950;48.154;16.316;2022-07-06T05:38:24;4.20;;;2.90;;
48161;SDS011;33950;48.154;16.316;2022-07-06T05:40:50;3.63;;;2.20;;
48161;SDS011;33950;48.154;16.316;2022-07-06T05:43:16;5.13;;;2.58;;
48161;SDS011;33950;48.154;16.316;2022-07-06T05:45:42;3.58;;;2.10;;
48161;SDS011;33950;48.154;16.316;2022-07-06T05:48:08;3.45;;;2.67;;
48161;SDS011;33950;48.154;16.316;2022-07-06T05:50:52;3.03;;;2.75;;
48161;SDS011;33950;48.154;16.316;2022-07-06T05:53:18;3.95;;;2.30;;
48161;SDS011;33950;48.154;16.316;2022-07-06T05:55:46;9.25;;;2.70;;
48161;SDS011;33950;48.154;16.316;2022-07-06T05:58:12;4.53;;;2.60;;
48161;SDS011;33950;48.154;16.316;2022-07-06T06:00:38;7.72;;;3.00;;
48161;SDS011;33950;48.154;16.316;2022-07-06T06:03:03;4.65;;;2.60;;
48161;SDS011;33950;48.154;16.316;2022-07-06T06:05:29;5.78;;;2.92;;
48161;SDS011;33950;48.154;16.316;2022-07-06T06:07:55;8.90;;;3.15;;
48161;SDS011;33950;48.154;16.316;2022-07-06T06:10:21;8.65;;;2.63;;
48161;SDS011;33950;48.154;16.316;2022-07-06T06:12:48;3.60;;;2.65;;
48161;SDS011;33950;48.154;16.316;2022-07-06T06:15:14;3.67;;;2.70;;
48161;SDS011;33950;48.154;16.316;2022-07-06T06:17:40;7.80;;;2.50;;
48161;SDS011;33950;48.154;16.316;2022-07-06T06:20:07;2.45;;;2.25;;
48161;SDS011;33950;48.154;16.316;2022-07-06T06:22:43;8.18;;;2.70;;
48161;SDS011;33950;48.154;16.316;2022-07-06T06:25:10;4.22;;;2.70;;
48161;SDS011;33950;48.154;16.316;2022-07-06T06:27:36;2.80;;;2.28;;
48161;SDS011;33950;48.154;16.316;2022-07-06T06:30:04;8.05;;;2.47;;
48161;SDS011;33950;48.154;16.316;2022-07-06T06:32:30;3.97;;;2.80;;
48161;SDS011;33950;48.154;16.316;2022-07-06T06:34:56;8.27;;;2.95;;
48161;SDS011;33950;48.154;16.316;2022-07-06T06:37:22;6.47;;;2.97;;
48161;SDS011;33950;48.154;16.316;2022-07-06T06:39:48;3.67;;;3.00;;
48161;SDS011;33950;48.154;16.316;2022-07-06T06:42:13;3.38;;;2.60;;
48161;SDS011;33950;48.154;16.316;2022-07-06T06:44:39;4.03;;;2.97;;
48161;SDS011;33950;48.154;16.316;2022-07-06T06:47:06;6.40;;;2.70;;
48161;SDS011;33950;48.154;16.316;2022-07-06T06:49:32;5.95;;;2.55;;
48161;SDS011;33950;48.154;16.316;2022-07-06T06:51:58;3.00;;;2.47;;
48161;SDS011;33950;48.154;16.316;2022-07-06T06:54:24;3.55;;;2.92;;
48161;SDS011;33950;48.154;16.316;2022-07-06T06:56:50;3.83;;;2.65;;
48161;SDS011;33950;48.154;16.316;2022-07-06T06:59:15;5.93;;;3.28;;
48161;SDS011;33950;48.154;16.316;2022-07-06T07:01:41;5.68;;;3.20;;
48161;SDS011;33950;48.154;16.316;2022-07-06T07:04:09;3.83;;;3.40;;
48161;SDS011;33950;48.154;16.316;2022-07-06T07:06:34;3.20;;;2.92;;
48161;SDS011;33950;48.154;16.316;2022-07-06T07:09:00;5.68;;;3.40;;
48161;SDS011;33950;48.154;16.316;2022-07-06T07:11:26;5.57;;;3.78;;
48161;SDS011;33950;48.154;16.316;2022-07-06T07:13:52;6.95;;;3.22;;
48161;SDS011;33950;48.154;16.316;2022-07-06T07:16:18;6.65;;;3.10;;
48161;SDS011;33950;48.154;16.316;2022-07-06T07:18:43;6.70;;;3.40;;
48161;SDS011;33950;48.154;16.316;2022-07-06T07:21:11;8.98;;;3.17;;
48161;SDS011;33950;48.154;16.316;2022-07-06T07:23:36;5.35;;;3.00;;
48161;SDS011;33950;48.154;16.316;2022-07-06T07:26:02;7.88;;;2.95;;
48161;SDS011;33950;48.154;16.316;2022-07-06T07:28:28;4.15;;;2.78;;
48161;SDS011;33950;48.154;16.316;2022-07-06T07:30:54;4.03;;;3.13;;
48161;SDS011;33950;48.154;16.316;2022-07-06T07:33:19;9.85;;;4.13;;
48161;SDS011;33950;48.154;16.316;2022-07-06T07:35:45;3.80;;;3.20;;
48161;SDS011;33950;48.154;16.316;2022-07-06T07:38:12;11.85;;;3.22;;
48161;SDS011;33950;48.154;16.316;2022-07-06T07:40:38;3.20;;;2.63;;
48161;SDS011;33950;48.154;16.316;2022-07-06T07:43:04;4.60;;;2.85;;
48161;SDS011;33950;48.154;16.316;2022-07-06T07:45:30;4.65;;;2.78;;
48161;SDS011;33950;48.154;16.316;2022-07-06T07:47:55;3.33;;;2.75;;
48161;SDS011;33950;48.154;16.316;2022-07-06T07:50:21;3.08;;;2.78;;
48161;SDS011;33950;48.154;16.316;2022-07-06T07:52:47;4.90;;;2.65;;
48161;SDS011;33950;48.154;16.316;2022-07-06T07:55:14;5.50;;;2.90;;
48161;SDS011;33950;48.154;16.316;2022-07-06T07:57:40;5.32;;;3.20;;
48161;SDS011;33950;48.154;16.316;2022-07-06T08:00:06;4.13;;;2.88;;
48161;SDS011;33950;48.154;16.316;2022-07-06T08:02:33;5.55;;;2.75;;
48161;SDS011;33950;48.154;16.316;2022-07-06T08:04:59;3.75;;;3.38;;
48161;SDS011;33950;48.154;16.316;2022-07-06T08:07:24;3.97;;;2.90;;
48161;SDS011;33950;48.154;16.316;2022-07-06T08:09:50;8.23;;;3.22;;
48161;SDS011;33950;48.154;16.316;2022-07-06T08:12:17;10.20;;;2.92;;
48161;SDS011;33950;48.154;16.316;2022-07-06T08:14:43;5.95;;;3.45;;
48161;SDS011;33950;48.154;16.316;2022-07-06T08:17:09;4.72;;;3.20;;
48161;SDS011;33950;48.154;16.316;2022-07-06T08:19:34;13.15;;;4.63;;
48161;SDS011;33950;48.154;16.316;2022-07-06T08:22:00;9.95;;;4.40;;
48161;SDS011;33950;48.154;16.316;2022-07-06T08:24:31;6.60;;;3.90;;
48161;SDS011;33950;48.154;16.316;2022-07-06T08:26:57;3.70;;;2.88;;
48161;SDS011;33950;48.154;16.316;2022-07-06T08:29:25;5.93;;;3.33;;
48161;SDS011;33950;48.154;16.316;2022-07-06T08:31:50;6.70;;;2.90;;
48161;SDS011;33950;48.154;16.316;2022-07-06T08:34:16;9.20;;;3.63;;
48161;SDS011;33950;48.154;16.316;2022-07-06T08:36:42;4.57;;;2.90;;
48161;SDS011;33950;48.154;16.316;2022-07-06T08:39:08;5.18;;;2.55;;
48161;SDS011;33950;48.154;16.316;2022-07-06T08:41:33;4.28;;;2.78;;
48161;SDS011;33950;48.154;16.316;2022-07-06T08:44:01;4.28;;;3.85;;
48161;SDS011;33950;48.154;16.316;2022-07-06T08:46:29;4.20;;;2.40;;
48161;SDS011;33950;48.154;16.316;2022-07-06T08:48:56;4.65;;;2.60;;
48161;SDS011;33950;48.154;16.316;2022-07-06T08:51:22;2.63;;;2.42;;
48161;SDS011;33950;48.154;16.316;2022-07-06T08:53:50;8.93;;;3.35;;
48161;SDS011;33950;48.154;16.316;2022-07-06T08:56:18;4.68;;;2.42;;
48161;SDS011;33950;48.154;16.316;2022-07-06T08:58:44;2.65;;;2.20;;
48161;SDS011;33950;48.154;16.316;2022-07-06T09:01:10;2.47;;;2.25;;
48161;SDS011;33950;48.154;16.316;2022-07-06T09:03:38;4.15;;;2.75;;
48161;SDS011;33950;48.154;16.316;2022-07-06T09:06:05;2.45;;;2.25;;
48161;SDS011;33950;48.154;16.316;2022-07-06T09:08:32;2.38;;;2.15;;
48161;SDS011;33950;48.154;16.316;2022-07-06T09:11:00;4.25;;;2.33;;
48161;SDS011;33950;48.154;16.316;2022-07-06T09:13:26;4.82;;;3.22;;
48161;SDS011;33950;48.154;16.316;2022-07-06T09:15:51;6.10;;;3.10;;
48161;SDS011;33950;48.154;16.316;2022-07-06T09:18:17;5.90;;;2.50;;
48161;SDS011;33950;48.154;16.316;2022-07-06T09:20:47;3.85;;;2.58;;
48161;SDS011;33950;48.154;16.316;2022-07-06T09:23:14;7.55;;;2.67;;
48161;SDS011;33950;48.154;16.316;2022-07-06T09:25:41;4.13;;;2.25;;
48161;SDS011;33950;48.154;16.316;2022-07-06T09:28:08;5.03;;;2.35;;
48161;SDS011;33950;48.154;16.316;2022-07-06T09:30:33;3.90;;;2.53;;
48161;SDS011;33950;48.154;16.316;2022-07-06T09:33:05;6.00;;;2.95;;
48161;SDS011;33950;48.154;16.316;2022-07-06T09:35:35;5.00;;;2.50;;
48161;SDS011;33950;48.154;16.316;2022-07-06T09:38:04;5.00;;;2.97;;
48161;SDS011;33950;48.154;16.316;2022-07-06T09:40:32;5.43;;;2.72;;
48161;SDS011;33950;48.154;16.316;2022-07-06T09:43:08;2.67;;;2.40;;
48161;SDS011;33950;48.154;16.316;2022-07-06T09:45:35;3.28;;;2.97;;
48161;SDS011;33950;48.154;16.316;2022-07-06T09:48:05;5.03;;;3.08;;
48161;SDS011;33950;48.154;16.316;2022-07-06T09:50:37;10.10;;;3.08;;
48161;SDS011;33950;48.154;16.316;2022-07-06T09:53:05;4.53;;;2.45;;
48161;SDS011;33950;48.154;16.316;2022-07-06T09:55:31;2.92;;;2.35;;
48161;SDS011;33950;48.154;16.316;2022-07-06T09:57:56;2.80;;;2.33;;
48161;SDS011;33950;48.154;16.316;2022-07-06T10:00:22;4.40;;;2.72;;
48161;SDS011;33950;48.154;16.316;2022-07-06T10:02:48;2.83;;;2.40;;
48161;SDS011;33950;48.154;16.316;2022-07-06T10:05:15;4.07;;;2.25;;
48161;SDS011;33950;48.154;16.316;2022-07-06T10:07:42;3.45;;;2.45;;
48161;SDS011;33950;48.154;16.316;2022-07-06T10:10:11;5.47;;;3.55;;
48161;SDS011;33950;48.154;16.316;2022-07-06T10:12:37;6.80;;;2.42;;
48161;SDS011;33950;48.154;16.316;2022-07-06T10:15:07;5.40;;;2.90;;
48161;SDS011;33950;48.154;16.316;2022-07-06T10:17:33;12.02;;;2.83;;
48161;SDS011;33950;48.154;16.316;2022-07-06T10:19:59;2.63;;;2.22;;
48161;SDS011;33950;48.154;16.316;2022-07-06T10:22:26;4.25;;;3.25;;
48161;SDS011;33950;48.154;16.316;2022-07-06T10:24:52;3.05;;;2.80;;
48161;SDS011;33950;48.154;16.316;2022-07-06T10:27:19;4.60;;;2.70;;
48161;SDS011;33950;48.154;16.316;2022-07-06T10:29:45;6.43;;;2.30;;
48161;SDS011;33950;48.154;16.316;2022-07-06T10:32:11;7.00;;;2.75;;
48161;SDS011;33950;48.154;16.316;2022-07-06T10:34:37;6.97;;;2.40;;
48161;SDS011;33950;48.154;16.316;2022-07-06T10:37:03;6.60;;;2.45;;
48161;SDS011;33950;48.154;16.316;2022-07-06T10:39:32;2.42;;;2.22;;
48161;SDS011;33950;48.154;16.316;2022-07-06T10:45:08;5.55;;;2.80;;
48161;SDS011;33950;48.154;16.316;2022-07-06T10:47:35;8.20;;;2.75;;
48161;SDS011;33950;48.154;16.316;2022-07-06T10:50:02;9.88;;;2.50;;
48161;SDS011;33950;48.154;16.316;2022-07-06T10:55:27;3.65;;;1.70;;
48161;SDS011;33950;48.154;16.316;2022-07-06T10:57:56;6.28;;;2.00;;
48161;SDS011;33950;48.154;16.316;2022-07-06T11:00:22;5.13;;;1.95;;
48161;SDS011;33950;48.154;16.316;2022-07-06T11:02:48;4.25;;;2.45;;
48161;SDS011;33950;48.154;16.316;2022-07-06T11:08:08;5.53;;;2.22;;
48161;SDS011;33950;48.154;16.316;2022-07-06T11:10:45;4.82;;;2.33;;
48161;SDS011;33950;48.154;16.316;2022-07-06T11:13:25;3.90;;;2.17;;
48161;SDS011;33950;48.154;16.316;2022-07-06T11:15:52;4.43;;;2.55;;
48161;SDS011;33950;48.154;16.316;2022-07-06T11:18:27;6.13;;;2.38;;
48161;SDS011;33950;48.154;16.316;2022-07-06T11:23:45;5.18;;;2.30;;
48161;SDS011;33950;48.154;16.316;2022-07-06T11:26:12;3.83;;;2.13;;
48161;SDS011;33950;48.154;16.316;2022-07-06T11:28:39;3.33;;;1.90;;
48161;SDS011;33950;48.154;16.316;2022-07-06T11:31:06;7.85;;;2.65;;
48161;SDS011;33950;48.154;16.316;2022-07-06T11:33:32;6.65;;;2.60;;
48161;SDS011;33950;48.154;16.316;2022-07-06T11:36:10;6.85;;;2.15;;
48161;SDS011;33950;48.154;16.316;2022-07-06T11:38:37;3.97;;;1.55;;
48161;SDS011;33950;48.154;16.316;2022-07-06T11:41:03;3.83;;;1.67;;
48161;SDS011;33950;48.154;16.316;2022-07-06T11:43:29;8.65;;;1.42;;
48161;SDS011;33950;48.154;16.316;2022-07-06T11:45:56;6.50;;;1.40;;
48161;SDS011;33950;48.154;16.316;2022-07-06T11:48:22;3.03;;;1.60;;
48161;SDS011;33950;48.154;16.316;2022-07-06T11:50:56;4.75;;;2.03;;
48161;SDS011;33950;48.154;16.316;2022-07-06T11:53:23;3.35;;;1.55;;
48161;SDS011;33950;48.154;16.316;2022-07-06T11:55:49;5.82;;;2.55;;
48161;SDS011;33950;48.154;16.316;2022-07-06T11:58:14;4.45;;;2.40;;
48161;SDS011;33950;48.154;16.316;2022-07-06T12:00:43;4.40;;;2.58;;
48161;SDS011;33950;48.154;16.316;2022-07-06T12:03:10;7.40;;;2.13;;
48161;SDS011;33950;48.154;16.316;2022-07-06T12:05:36;2.38;;;2.17;;
48161;SDS011;33950;48.154;16.316;2022-07-06T12:08:04;2.95;;;2.38;;
48161;SDS011;33950;48.154;16.316;2022-07-06T12:10:31;4.07;;;2.63;;
48161;SDS011;33950;48.154;16.316;2022-07-06T12:13:02;10.13;;;3.03;;
48161;SDS011;33950;48.154;16.316;2022-07-06T12:15:28;3.17;;;2.92;;
48161;SDS011;33950;48.154;16.316;2022-07-06T12:17:54;7.15;;;2.20;;
48161;SDS011;33950;48.154;16.316;2022-07-06T12:20:21;2.60;;;2.40;;
48161;SDS011;33950;48.154;16.316;2022-07-06T12:22:47;6.30;;;2.40;;
48161;SDS011;33950;48.154;16.316;2022-07-06T12:27:57;6.10;;;2.55;;
48161;SDS011;33950;48.154;16.316;2022-07-06T12:30:23;3.55;;;2.60;;
48161;SDS011;33950;48.154;16.316;2022-07-06T12:35:37;2.85;;;1.90;;
48161;SDS011;33950;48.154;16.316;2022-07-06T12:38:03;6.38;;;2.08;;
48161;SDS011;33950;48.154;16.316;2022-07-06T12:40:29;3.88;;;2.20;;
48161;SDS011;33950;48.154;16.316;2022-07-06T12:42:54;2.20;;;2.10;;
48161;SDS011;33950;48.154;16.316;2022-07-06T12:45:25;2.95;;;2.42;;
48161;SDS011;33950;48.154;16.316;2022-07-06T12:50:30;7.07;;;2.60;;
48161;SDS011;33950;48.154;16.316;2022-07-06T12:52:59;5.53;;;2.33;;
48161;SDS011;33950;48.154;16.316;2022-07-06T12:55:25;2.97;;;2.45;;
48161;SDS011;33950;48.154;16.316;2022-07-06T12:57:53;5.15;;;2.38;;
48161;SDS011;33950;48.154;16.316;2022-07-06T13:00:19;6.20;;;2.40;;
48161;SDS011;33950;48.154;16.316;2022-07-06T13:02:47;9.30;;;2.00;;
48161;SDS011;33950;48.154;16.316;2022-07-06T13:05:18;2.47;;;2.05;;
48161;SDS011;33950;48.154;16.316;2022-07-06T13:07:52;4.05;;;2.00;;
48161;SDS011;33950;48.154;16.316;2022-07-06T13:10:21;2.50;;;1.98;;
48161;SDS011;33950;48.154;16.316;2022-07-06T13:12:47;4.15;;;2.28;;
48161;SDS011;33950;48.154;16.316;2022-07-06T13:15:13;7.15;;;2.38;;
48161;SDS011;33950;48.154;16.316;2022-07-06T13:17:40;4.18;;;2.40;;
48161;SDS011;33950;48.154;16.316;2022-07-06T13:20:06;6.30;;;1.90;;
48161;SDS011;33950;48.154;16.316;2022-07-06T13:22:33;9.30;;;1.92;;
48161;SDS011;33950;48.154;16.316;2022-07-06T13:24:59;8.32;;;2.63;;
48161;SDS011;33950;48.154;16.316;2022-07-06T13:27:26;5.05;;;2.28;;
48161;SDS011;33950;48.154;16.316;2022-07-06T13:29:52;5.85;;;1.90;;
48161;SDS011;33950;48.154;16.316;2022-07-06T13:32:18;2.10;;;1.90;;
48161;SDS011;33950;48.154;16.316;2022-07-06T13:34:44;5.28;;;1.80;;
48161;SDS011;33950;48.154;16.316;2022-07-06T13:37:10;10.93;;;3.78;;
48161;SDS011;33950;48.154;16.316;2022-07-06T13:39:36;3.90;;;1.75;;
48161;SDS011;33950;48.154;16.316;2022-07-06T13:42:02;5.75;;;1.65;;
48161;SDS011;33950;48.154;16.316;2022-07-06T13:44:29;2.67;;;1.77;;
48161;SDS011;33950;48.154;16.316;2022-07-06T13:46:55;2.72;;;1.70;;
48161;SDS011;33950;48.154;16.316;2022-07-06T13:49:21;3.53;;;1.85;;
48161;SDS011;33950;48.154;16.316;2022-07-06T13:51:47;5.00;;;2.17;;
48161;SDS011;33950;48.154;16.316;2022-07-06T13:54:13;4.63;;;1.40;;
48161;SDS011;33950;48.154;16.316;2022-07-06T13:56:39;2.58;;;1.42;;
48161;SDS011;33950;48.154;16.316;2022-07-06T13:59:05;2.10;;;1.33;;
48161;SDS011;33950;48.154;16.316;2022-07-06T14:01:32;4.53;;;1.27;;
48161;SDS011;33950;48.154;16.316;2022-07-06T14:03:59;2.75;;;0.98;;
48161;SDS011;33950;48.154;16.316;2022-07-06T14:06:24;2.05;;;1.30;;
48161;SDS011;33950;48.154;16.316;2022-07-06T14:08:50;3.33;;;1.27;;
48161;SDS011;33950;48.154;16.316;2022-07-06T14:11:16;1.45;;;1.10;;
48161;SDS011;33950;48.154;16.316;2022-07-06T14:13:43;4.13;;;1.15;;
48161;SDS011;33950;48.154;16.316;2022-07-06T14:16:09;0.93;;;0.90;;
48161;SDS011;33950;48.154;16.316;2022-07-06T14:18:36;4.03;;;1.17;;
48161;SDS011;33950;48.154;16.316;2022-07-06T14:21:02;2.47;;;1.45;;
48161;SDS011;33950;48.154;16.316;2022-07-06T14:23:31;2.17;;;1.00;;
48161;SDS011;33950;48.154;16.316;2022-07-06T14:25:57;4.35;;;1.95;;
48161;SDS011;33950;48.154;16.316;2022-07-06T14:28:23;3.45;;;1.40;;
48161;SDS011;33950;48.154;16.316;2022-07-06T14:30:49;1.45;;;1.35;;
48161;SDS011;33950;48.154;16.316;2022-07-06T14:33:15;1.30;;;1.20;;
48161;SDS011;33950;48.154;16.316;2022-07-06T14:35:43;1.73;;;1.52;;
48161;SDS011;33950;48.154;16.316;2022-07-06T14:38:09;2.40;;;1.90;;
48161;SDS011;33950;48.154;16.316;2022-07-06T14:40:35;8.43;;;2.30;;
48161;SDS011;33950;48.154;16.316;2022-07-06T14:43:02;7.55;;;2.40;;
48161;SDS011;33950;48.154;16.316;2022-07-06T14:45:28;9.32;;;2.00;;
48161;SDS011;33950;48.154;16.316;2022-07-06T14:47:55;9.50;;;2.13;;
48161;SDS011;33950;48.154;16.316;2022-07-06T14:50:21;3.08;;;1.90;;